createdAt,value
2023-06-16T00:01:20.751Z,99935.06
2023-06-16T00:04:26.916Z,99946.00
2023-06-16T00:07:32.449Z,99918.91
2023-06-16T00:10:34.871Z,99918.59
2023-06-16T00:13:37.538Z,99917.47
2023-06-16T00:16:40.390Z,99923.28
2023-06-16T00:19:42.862Z,99916.91
2023-06-16T00:22:49.212Z,99921.16
2023-06-16T00:25:51.979Z,99924.97
2023-06-16T00:28:54.666Z,99906.63
2023-06-16T00:31:57.202Z,99921.13
2023-06-16T00:34:59.733Z,99914.44
2023-06-16T00:38:02.179Z,99925.66
2023-06-16T00:41:04.905Z,99920.13
2023-06-16T00:44:07.509Z,99918.81
2023-06-16T00:47:10.137Z,99905.28
2023-06-16T00:50:12.903Z,99925.19
2023-06-16T00:53:16.431Z,99907.53
2023-06-16T00:56:22.815Z,99901.75
2023-06-16T00:59:27.720Z,99905.22
2023-06-16T01:02:30.266Z,99909.13
2023-06-16T01:05:34.312Z,99921.69
2023-06-16T01:08:48.521Z,99922.44
2023-06-16T01:12:15.302Z,99915.38
2023-06-16T01:15:22.461Z,99912.13
2023-06-16T01:18:27.062Z,99906.63
2023-06-16T01:21:38.952Z,99910.94
2023-06-16T01:24:43.488Z,99914.41
2023-06-16T01:27:48.847Z,99914.38
2023-06-16T01:30:53.413Z,99911.97
2023-06-16T01:33:57.410Z,99911.31
2023-06-16T01:37:01.433Z,99909.75
2023-06-16T01:40:04.904Z,99905.22
2023-06-16T01:43:10.920Z,99909.47
2023-06-16T01:46:15.160Z,99896.66
2023-06-16T01:49:20.080Z,99911.59
2023-06-16T01:52:22.522Z,99915.38
2023-06-16T01:55:25.059Z,99904.69
2023-06-16T01:58:28.206Z,99911.69
2023-06-16T02:01:32.040Z,99909.19
2023-06-16T02:04:38.881Z,99920.50
2023-06-16T02:07:45.384Z,99910.38
2023-06-16T02:10:48.554Z,99907.59
2023-06-16T02:13:51.279Z,99906.88
2023-06-16T02:16:54.179Z,99911.13
2023-06-16T02:19:56.995Z,99912.53
2023-06-16T02:22:59.406Z,99901.16
2023-06-16T02:26:01.802Z,99901.47
2023-06-16T02:29:04.788Z,99897.88
2023-06-16T02:32:07.743Z,99906.56
2023-06-16T02:35:10.589Z,99902.91
2023-06-16T02:38:13.013Z,99906.84
2023-06-16T02:41:15.693Z,99902.06
2023-06-16T02:44:18.130Z,99903.81
2023-06-16T02:47:20.708Z,99908.56
2023-06-16T02:50:24.671Z,99920.31
2023-06-16T02:53:30.454Z,99911.78
2023-06-16T02:56:34.163Z,99914.34
2023-06-16T02:59:37.385Z,99913.84
2023-06-16T03:02:39.977Z,99929.28
2023-06-16T03:05:43.198Z,99919.88
2023-06-16T03:08:45.792Z,99920.84
2023-06-16T03:11:48.552Z,99920.31
2023-06-16T03:14:51.865Z,99925.94
2023-06-16T03:17:56.131Z,99923.13
2023-06-16T03:20:59.220Z,99918.59
2023-06-16T03:24:06.396Z,99921.63
2023-06-16T03:27:09.905Z,99923.91
2023-06-16T03:30:25.413Z,99923.50
2023-06-16T03:33:36.489Z,99929.53
2023-06-16T03:36:40.416Z,99923.75
2023-06-16T03:39:44.042Z,99928.63
2023-06-16T03:42:46.676Z,99928.31
2023-06-16T03:45:49.761Z,99931.44
2023-06-16T03:48:52.371Z,99926.78
2023-06-16T03:51:58.007Z,99936.88
2023-06-16T03:55:01.534Z,99938.31
2023-06-16T03:58:04.540Z,99932.44
2023-06-16T04:01:07.640Z,99921.53
2023-06-16T04:04:10.447Z,99930.34
2023-06-16T04:07:13.427Z,99931.66
2023-06-16T04:10:17.717Z,99930.72
2023-06-16T04:13:20.489Z,99923.28
2023-06-16T04:16:24.652Z,99925.88
2023-06-16T04:19:29.312Z,99926.41
2023-06-16T04:22:31.817Z,99919.38
2023-06-16T04:25:36.651Z,99915.03
2023-06-16T04:28:43.825Z,99924.16
2023-06-16T04:31:52.626Z,99924.75
2023-06-16T04:34:58.964Z,99905.41
2023-06-16T04:38:02.539Z,99916.44
2023-06-16T04:41:05.725Z,99918.31
2023-06-16T04:44:09.296Z,99916.44
2023-06-16T04:47:13.784Z,99909.31
2023-06-16T04:50:18.075Z,99917.28
2023-06-16T04:53:21.766Z,99918.38
2023-06-16T04:56:24.490Z,99914.94
2023-06-16T04:59:27.252Z,99904.69
2023-06-16T05:02:29.774Z,99915.63
2023-06-16T05:05:33.432Z,99907.00
2023-06-16T05:08:35.887Z,99911.78
2023-06-16T05:11:38.432Z,99908.72
2023-06-16T05:14:41.028Z,99907.09
2023-06-16T05:17:46.012Z,99915.25
2023-06-16T05:20:48.633Z,99913.69
2023-06-16T05:23:54.317Z,99910.25
2023-06-16T05:26:57.718Z,99924.03
2023-06-16T05:30:01.106Z,99915.06
2023-06-16T05:33:05.209Z,99914.81
2023-06-16T05:36:08.735Z,99918.72
2023-06-16T05:39:16.125Z,99926.16
2023-06-16T05:42:20.357Z,99916.81
2023-06-16T05:45:22.986Z,99921.88
2023-06-16T05:48:26.521Z,99923.47
2023-06-16T05:51:28.940Z,99908.81
2023-06-16T05:54:31.823Z,99918.75
2023-06-16T05:57:35.640Z,99919.66
2023-06-16T06:00:38.063Z,99909.47
2023-06-16T06:03:48.714Z,99919.00
2023-06-16T06:06:54.220Z,99924.81
2023-06-16T06:09:57.767Z,99927.81
2023-06-16T06:13:03.954Z,99923.13
2023-06-16T06:16:07.552Z,99923.47
2023-06-16T06:19:10.780Z,99927.41
2023-06-16T06:22:13.295Z,99931.78
2023-06-16T06:25:17.336Z,99928.22
2023-06-16T06:28:20.134Z,99919.06
2023-06-16T06:31:22.895Z,99924.56
2023-06-16T06:34:25.331Z,99923.88
2023-06-16T06:37:31.892Z,99928.25
2023-06-16T06:40:37.345Z,99927.09
2023-06-16T06:43:40.935Z,99927.50
2023-06-16T06:46:50.349Z,99924.34
2023-06-16T06:49:57.170Z,99936.50
2023-06-16T06:53:00.755Z,99934.88
2023-06-16T06:56:03.279Z,99932.97
2023-06-16T06:59:05.853Z,99919.19
2023-06-16T07:02:08.481Z,99928.22
2023-06-16T07:05:11.015Z,99916.81
2023-06-16T07:08:13.525Z,99923.16
2023-06-16T07:11:15.946Z,99921.22
2023-06-16T07:14:18.368Z,99918.84
2023-06-16T07:17:21.036Z,99919.63
2023-06-16T07:20:23.421Z,99926.22
2023-06-16T07:23:28.750Z,99919.69
2023-06-16T07:26:31.246Z,99927.81
2023-06-16T07:29:33.690Z,99920.41
2023-06-16T07:32:37.468Z,99921.28
2023-06-16T07:35:40.018Z,99921.03
2023-06-16T07:38:42.621Z,99918.44
2023-06-16T07:41:45.138Z,99917.94
2023-06-16T07:44:48.813Z,99920.94
2023-06-16T07:47:51.306Z,99915.22
2023-06-16T07:50:54.685Z,99914.06
2023-06-16T07:53:57.203Z,99912.09
2023-06-16T07:56:59.610Z,99912.88
2023-06-16T08:00:02.041Z,99927.09
2023-06-16T08:03:15.005Z,99915.31
2023-06-16T08:06:22.388Z,99923.56
2023-06-16T08:09:24.979Z,99916.09
2023-06-16T08:12:28.756Z,99917.66
2023-06-16T08:15:31.848Z,99922.28
2023-06-16T08:18:34.307Z,99920.69
2023-06-16T08:21:38.830Z,99915.22
2023-06-16T08:24:41.318Z,99908.56
2023-06-16T08:27:43.839Z,99908.22
2023-06-16T08:30:46.372Z,99903.09
2023-06-16T08:33:48.876Z,99914.13
2023-06-16T08:36:51.394Z,99905.09
2023-06-16T08:39:53.831Z,99903.91
2023-06-16T08:42:56.723Z,99907.81
2023-06-16T08:46:00.343Z,99910.19
2023-06-16T08:49:04.884Z,99908.97
2023-06-16T08:52:09.955Z,99908.91
2023-06-16T08:55:15.449Z,99909.19
2023-06-16T08:58:21.319Z,99906.78
2023-06-16T09:01:25.694Z,99914.81
2023-06-16T09:04:30.169Z,99890.44
2023-06-16T09:07:32.543Z,99896.16
2023-06-16T09:10:35.723Z,99886.63
2023-06-16T09:13:44.116Z,99884.28
2023-06-16T09:16:56.762Z,99885.22
2023-06-16T09:19:59.328Z,99892.41
2023-06-16T09:23:02.122Z,99890.72
2023-06-16T09:26:12.663Z,99887.38
2023-06-16T09:29:23.258Z,99890.97
2023-06-16T09:32:26.392Z,99899.66
2023-06-16T09:35:30.559Z,99891.53
2023-06-16T09:38:39.295Z,99897.28
2023-06-16T09:41:44.353Z,99900.63
2023-06-16T09:44:49.479Z,99893.44
2023-06-16T09:47:52.316Z,99897.72
2023-06-16T09:50:57.709Z,99892.66
2023-06-16T09:54:00.603Z,99893.97
2023-06-16T09:57:04.770Z,99887.19
2023-06-16T10:00:17.596Z,99890.34
2023-06-16T10:03:21.940Z,99886.06
2023-06-16T10:06:29.495Z,99880.66
2023-06-16T10:09:55.119Z,99877.63
2023-06-16T10:13:04.935Z,99878.91
2023-06-16T10:16:12.727Z,99888.56
2023-06-16T10:19:15.657Z,99876.38
2023-06-16T10:22:18.794Z,99878.13
2023-06-16T10:25:22.492Z,99875.44
2023-06-16T10:28:26.211Z,99870.63
2023-06-16T10:31:29.545Z,99873.00
2023-06-16T10:34:32.032Z,99863.78
2023-06-16T10:37:34.538Z,99867.19
2023-06-16T10:40:43.208Z,99857.38
2023-06-16T10:43:45.682Z,99856.97
2023-06-16T10:47:11.419Z,99852.94
2023-06-16T10:50:13.979Z,99846.69
2023-06-16T10:53:23.681Z,99855.38
2023-06-16T10:56:26.515Z,99850.44
2023-06-16T10:59:29.234Z,99854.91
2023-06-16T11:02:35.298Z,99848.97
2023-06-16T11:05:41.623Z,99853.19
2023-06-16T11:08:55.078Z,99854.56
2023-06-16T11:12:01.053Z,99855.66
2023-06-16T11:15:09.593Z,99853.47
2023-06-16T11:18:14.999Z,99863.31
2023-06-16T11:21:17.564Z,99859.94
2023-06-16T11:24:21.211Z,99864.78
2023-06-16T11:27:24.744Z,99861.03
2023-06-16T11:30:28.882Z,99866.66
2023-06-16T11:33:34.163Z,99866.88
2023-06-16T11:36:36.691Z,99861.75
2023-06-16T11:39:45.598Z,99858.75
2023-06-16T11:43:02.517Z,99865.44
2023-06-16T11:46:05.025Z,99864.56
2023-06-16T11:49:07.433Z,99863.00
2023-06-16T11:52:10.975Z,99877.13
2023-06-16T11:55:14.010Z,99869.97
2023-06-16T11:58:16.390Z,99871.53
2023-06-16T12:01:19.436Z,99880.28
2023-06-16T12:04:22.798Z,99881.22
2023-06-16T12:07:25.458Z,99880.94
2023-06-16T12:10:27.965Z,99880.38
2023-06-16T12:13:34.330Z,99884.09
2023-06-16T12:16:36.980Z,99886.06
2023-06-16T12:19:41.456Z,99888.56
2023-06-16T12:22:46.253Z,99886.63
2023-06-16T12:25:50.025Z,99884.63
2023-06-16T12:28:57.078Z,99881.47
2023-06-16T12:32:01.851Z,99881.47
2023-06-16T12:35:05.498Z,99890.09
2023-06-16T12:38:08.142Z,99882.59
2023-06-16T12:41:14.216Z,99892.81
2023-06-16T12:44:17.239Z,99896.75
2023-06-16T12:47:21.926Z,99904.97
2023-06-16T12:50:24.362Z,99890.78
2023-06-16T12:53:26.827Z,99895.13
2023-06-16T12:56:29.218Z,99903.72
2023-06-16T12:59:31.930Z,99902.56
2023-06-16T13:02:34.422Z,99906.56
2023-06-16T13:05:36.885Z,99902.56
2023-06-16T13:08:39.307Z,99891.06
2023-06-16T13:11:42.419Z,99903.56
2023-06-16T13:14:44.987Z,99893.66
2023-06-16T13:17:47.456Z,99904.25
2023-06-16T13:20:51.967Z,99905.00
2023-06-16T13:23:54.510Z,99897.59
2023-06-16T13:26:56.976Z,99890.88
2023-06-16T13:29:59.364Z,99901.00
2023-06-16T13:33:01.868Z,99895.50
2023-06-16T13:36:07.463Z,99896.66
2023-06-16T13:39:10.683Z,99889.19
2023-06-16T13:42:13.436Z,99904.47
2023-06-16T13:45:16.054Z,99891.53
2023-06-16T13:48:18.924Z,99886.91
2023-06-16T13:51:21.431Z,99888.88
2023-06-16T13:54:23.847Z,99892.84
2023-06-16T13:57:26.318Z,99885.38
2023-06-16T14:00:28.853Z,99892.16
2023-06-16T14:03:31.634Z,99877.13
2023-06-16T14:06:34.036Z,99883.00
2023-06-16T14:09:36.510Z,99886.47
2023-06-16T14:12:38.948Z,99878.13
2023-06-16T14:15:41.374Z,99872.91
2023-06-16T14:18:43.771Z,99877.59
2023-06-16T14:21:46.257Z,99871.25
2023-06-16T14:24:48.850Z,99878.06
2023-06-16T14:27:51.363Z,99872.03
2023-06-16T14:30:53.891Z,99864.66
2023-06-16T14:33:56.384Z,99871.63
2023-06-16T14:36:58.873Z,99856.34
2023-06-16T14:40:01.958Z,99865.41
2023-06-16T14:43:04.466Z,99860.28
2023-06-16T14:46:06.861Z,99854.78
2023-06-16T14:49:09.306Z,99846.81
2023-06-16T14:52:11.730Z,99849.31
2023-06-16T14:55:14.258Z,99831.84
2023-06-16T14:58:16.675Z,99860.13
2023-06-16T15:01:19.118Z,99849.88
2023-06-16T15:04:21.772Z,99845.53
2023-06-16T15:07:24.239Z,99831.09
2023-06-16T15:10:26.657Z,99827.56
2023-06-16T15:13:29.043Z,99823.13
2023-06-16T15:16:31.802Z,99820.50
2023-06-16T15:19:34.287Z,99820.66
2023-06-16T15:22:36.650Z,99818.38
2023-06-16T15:25:39.096Z,99822.38
2023-06-16T15:28:41.522Z,99813.78
2023-06-16T15:31:44.125Z,99826.34
2023-06-16T15:34:46.547Z,99827.63
2023-06-16T15:37:48.957Z,99824.69
2023-06-16T15:40:51.423Z,99814.09
2023-06-16T15:43:53.875Z,99815.25
2023-06-16T15:46:56.686Z,99829.13
2023-06-16T15:49:59.112Z,99826.63
2023-06-16T15:53:02.958Z,99825.44
2023-06-16T15:56:05.676Z,99824.63
2023-06-16T15:59:09.669Z,99818.91
2023-06-16T16:02:12.320Z,99823.22
2023-06-16T16:05:16.235Z,99820.72
2023-06-16T16:08:20.321Z,99838.63
2023-06-16T16:11:22.789Z,99820.75
2023-06-16T16:14:25.217Z,99829.53
2023-06-16T16:17:29.798Z,99840.31
2023-06-16T16:20:32.227Z,99838.78
2023-06-16T16:23:34.690Z,99844.16
2023-06-16T16:26:37.239Z,99842.09
2023-06-16T16:29:39.687Z,99856.38
2023-06-16T16:32:42.290Z,99857.53
2023-06-16T16:35:46.346Z,99853.34
2023-06-16T16:38:48.870Z,99850.72
2023-06-16T16:41:53.736Z,99859.19
2023-06-16T16:44:56.186Z,99866.06
2023-06-16T16:47:58.981Z,99853.91
2023-06-16T16:51:01.648Z,99858.50
2023-06-16T16:54:04.124Z,99856.00
2023-06-16T16:57:06.926Z,99860.63
2023-06-16T17:00:09.984Z,99856.19
2023-06-16T17:03:12.469Z,99853.81
2023-06-16T17:06:14.951Z,99866.22
2023-06-16T17:09:17.902Z,99866.22
2023-06-16T17:12:20.420Z,99869.31
2023-06-16T17:15:23.504Z,99866.78
2023-06-16T17:18:26.711Z,99866.56
2023-06-16T17:21:29.185Z,99869.22
2023-06-16T17:24:31.655Z,99864.00
2023-06-16T17:27:45.317Z,99866.19
2023-06-16T17:30:56.549Z,99862.13
2023-06-16T17:34:00.376Z,99866.44
2023-06-16T17:37:02.848Z,99867.88
2023-06-16T17:40:07.765Z,99862.63
2023-06-16T17:43:10.175Z,99870.09
2023-06-16T17:46:13.517Z,99866.84
2023-06-16T17:49:19.904Z,99872.72
2023-06-16T17:52:22.347Z,99859.38
2023-06-16T17:55:24.906Z,99860.38
2023-06-16T17:58:27.317Z,99862.72
2023-06-16T18:01:30.025Z,99859.78
2023-06-16T18:04:32.558Z,99860.63
2023-06-16T18:07:35.534Z,99862.94
2023-06-16T18:10:39.682Z,99865.25
2023-06-16T18:13:43.564Z,99868.41
2023-06-16T18:16:46.180Z,99855.59
2023-06-16T18:19:48.612Z,99858.25
2023-06-16T18:22:52.778Z,99857.38
2023-06-16T18:25:55.233Z,99868.50
2023-06-16T18:28:58.015Z,99877.00
2023-06-16T18:32:02.915Z,99871.69
2023-06-16T18:35:06.672Z,99875.06
2023-06-16T18:38:10.128Z,99871.59
2023-06-16T18:41:13.691Z,99879.66
2023-06-16T18:44:19.013Z,99873.78
2023-06-16T18:47:21.394Z,99875.97
2023-06-16T18:50:23.824Z,99880.88
2023-06-16T18:53:26.336Z,99883.50
2023-06-16T18:56:28.916Z,99883.88
2023-06-16T18:59:33.697Z,99891.06
2023-06-16T19:02:36.585Z,99892.94
2023-06-16T19:05:45.086Z,99901.03
2023-06-16T19:08:48.563Z,99887.78
2023-06-16T19:11:50.994Z,99897.41
2023-06-16T19:14:53.648Z,99906.38
2023-06-16T19:17:56.304Z,99901.53
2023-06-16T19:20:59.577Z,99903.72
2023-06-16T19:24:02.252Z,99898.91
2023-06-16T19:27:05.294Z,99903.22
2023-06-16T19:30:08.769Z,99907.78
2023-06-16T19:33:13.233Z,99914.28
2023-06-16T19:36:15.980Z,99900.41
2023-06-16T19:39:18.439Z,99917.66
2023-06-16T19:42:20.928Z,99912.31
2023-06-16T19:45:23.996Z,99911.78
2023-06-16T19:48:27.079Z,99912.19
2023-06-16T19:51:29.559Z,99915.06
2023-06-16T19:54:32.029Z,99914.56
2023-06-16T19:57:34.623Z,99910.50
2023-06-16T20:00:37.175Z,99900.13
2023-06-16T20:03:39.763Z,99903.00
2023-06-16T20:06:42.817Z,99900.72
2023-06-16T20:09:45.263Z,99898.56
2023-06-16T20:12:47.748Z,99905.59
2023-06-16T20:15:50.275Z,99892.66
2023-06-16T20:18:53.239Z,99901.59
2023-06-16T20:21:58.829Z,99891.16
2023-06-16T20:25:01.272Z,99868.44
2023-06-16T20:28:03.713Z,99881.19
2023-06-16T20:31:06.336Z,99881.72
2023-06-16T20:34:10.351Z,99863.56
2023-06-16T20:37:14.293Z,99866.06
2023-06-16T20:40:17.518Z,99857.88
2023-06-16T20:43:20.470Z,99858.09
2023-06-16T20:46:24.536Z,99861.84
2023-06-16T20:49:27.031Z,99865.22
2023-06-16T20:52:29.468Z,99852.94
2023-06-16T20:55:33.239Z,99840.00
2023-06-16T20:58:37.524Z,99847.47
2023-06-16T21:01:44.312Z,99845.81
2023-06-16T21:04:47.987Z,99848.91
2023-06-16T21:07:50.588Z,99844.97
2023-06-16T21:10:53.143Z,99850.00
2023-06-16T21:13:55.862Z,99853.44
2023-06-16T21:16:58.279Z,99852.00
2023-06-16T21:20:00.769Z,99822.63
2023-06-16T21:23:06.033Z,99842.44
2023-06-16T21:26:08.823Z,99847.66
2023-06-16T21:29:11.430Z,99854.72
2023-06-16T21:32:13.901Z,99845.03
2023-06-16T21:35:16.465Z,99849.75
2023-06-16T21:38:21.649Z,99854.38
2023-06-16T21:41:25.236Z,99852.00
2023-06-16T21:44:27.773Z,99854.25
2023-06-16T21:47:30.407Z,99843.91
2023-06-16T21:50:32.843Z,99844.41
2023-06-16T21:53:37.100Z,99849.25
2023-06-16T21:56:39.508Z,99845.78
2023-06-16T21:59:41.883Z,99840.59
2023-06-16T22:02:44.417Z,99841.59
2023-06-16T22:05:47.235Z,99840.56
2023-06-16T22:08:49.634Z,99853.94
2023-06-16T22:11:52.214Z,99839.94
2023-06-16T22:14:54.581Z,99847.31
2023-06-16T22:17:58.127Z,99836.03
2023-06-16T22:21:01.437Z,99835.28
2023-06-16T22:24:04.183Z,99842.94
2023-06-16T22:27:20.432Z,99849.63
2023-06-16T22:30:24.649Z,99850.84
2023-06-16T22:33:27.283Z,99840.34
2023-06-16T22:36:29.734Z,99850.06
2023-06-16T22:39:32.180Z,99844.78
2023-06-16T22:42:34.620Z,99848.75
2023-06-16T22:45:37.062Z,99845.59
2023-06-16T22:48:42.472Z,99851.56
2023-06-16T22:51:45.780Z,99839.19
2023-06-16T22:54:48.175Z,99841.50
2023-06-16T22:57:50.636Z,99853.25
2023-06-16T23:00:53.050Z,99846.47
2023-06-16T23:03:55.810Z,99834.19
2023-06-16T23:06:59.740Z,99838.50
2023-06-16T23:10:02.789Z,99848.28
2023-06-16T23:13:05.293Z,99847.97
2023-06-16T23:16:07.886Z,99851.00
2023-06-16T23:19:12.519Z,99831.09
2023-06-16T23:22:15.493Z,99831.97
2023-06-16T23:25:18.162Z,99844.38
2023-06-16T23:28:20.986Z,99839.50
2023-06-16T23:31:23.401Z,99849.97
2023-06-16T23:34:25.863Z,99848.47
2023-06-16T23:37:28.845Z,99841.38
2023-06-16T23:40:31.233Z,99849.72
2023-06-16T23:43:34.164Z,99841.53
2023-06-16T23:46:36.734Z,99838.56
2023-06-16T23:49:39.284Z,99834.25
2023-06-16T23:52:41.758Z,99828.16
2023-06-16T23:55:44.162Z,99835.41
2023-06-16T23:58:46.689Z,99832.91
